sensor_id;sensor_type;location;lat;lon;timestamp;pressure;altitude;pressure_sealevel;temperature;humidity
52591;BME280;38483;42.620;25.394;2022-10-16T00:01:30;97725.84;;;9.39;72.45
52591;BME280;38483;42.620;25.394;2022-10-16T00:03:59;97700.78;;;8.84;73.77
52591;BME280;38483;42.620;25.394;2022-10-16T00:06:27;97721.56;;;8.78;75.27
52591;BME280;38483;42.620;25.394;2022-10-16T00:08:55;97719.16;;;8.73;76.19
52591;BME280;38483;42.620;25.394;2022-10-16T00:11:31;97727.22;;;8.92;76.15
52591;BME280;38483;42.620;25.394;2022-10-16T00:14:01;97729.44;;;8.75;76.76
52591;BME280;38483;42.620;25.394;2022-10-16T00:16:28;97729.25;;;8.50;78.59
52591;BME280;38483;42.620;25.394;2022-10-16T00:18:56;97717.91;;;8.56;77.93
52591;BME280;38483;42.620;25.394;2022-10-16T00:21:27;97729.47;;;8.73;78.36
52591;BME280;38483;42.620;25.394;2022-10-16T00:24:12;97729.00;;;8.90;78.30
52591;BME280;38483;42.620;25.394;2022-10-16T00:26:40;97732.47;;;8.89;78.21
52591;BME280;38483;42.620;25.394;2022-10-16T00:29:08;97731.03;;;8.79;77.82
52591;BME280;38483;42.620;25.394;2022-10-16T00:31:35;97725.63;;;8.56;78.05
52591;BME280;38483;42.620;25.394;2022-10-16T00:34:02;97748.97;;;8.53;79.35
52591;BME280;38483;42.620;25.394;2022-10-16T00:36:29;97733.66;;;8.45;79.79
52591;BME280;38483;42.620;25.394;2022-10-16T00:38:59;97739.47;;;8.53;79.04
52591;BME280;38483;42.620;25.394;2022-10-16T00:41:28;97740.94;;;8.63;78.86
52591;BME280;38483;42.620;25.394;2022-10-16T00:43:58;97745.78;;;8.74;78.92
52591;BME280;38483;42.620;25.394;2022-10-16T00:46:38;97753.72;;;8.68;78.23
52591;BME280;38483;42.620;25.394;2022-10-16T00:49:14;97746.13;;;8.62;78.68
52591;BME280;38483;42.620;25.394;2022-10-16T00:51:44;97760.78;;;8.61;78.99
52591;BME280;38483;42.620;25.394;2022-10-16T00:54:16;97759.31;;;8.51;79.47
52591;BME280;38483;42.620;25.394;2022-10-16T00:56:45;97759.25;;;8.54;78.72
52591;BME280;38483;42.620;25.394;2022-10-16T00:59:24;97763.16;;;8.69;78.54
52591;BME280;38483;42.620;25.394;2022-10-16T01:01:53;97769.78;;;8.79;78.18
52591;BME280;38483;42.620;25.394;2022-10-16T01:04:21;97762.81;;;8.81;77.82
52591;BME280;38483;42.620;25.394;2022-10-16T01:12:52;97772.44;;;9.36;75.19
52591;BME280;38483;42.620;25.394;2022-10-16T01:15:32;97768.78;;;9.43;74.52
52591;BME280;38483;42.620;25.394;2022-10-16T01:21:01;97764.66;;;9.37;73.86
52591;BME280;38483;42.620;25.394;2022-10-16T01:29:23;97779.94;;;9.16;72.97
52591;BME280;38483;42.620;25.394;2022-10-16T01:32:04;97767.91;;;8.84;73.93
52591;BME280;38483;42.620;25.394;2022-10-16T01:34:37;97784.34;;;8.80;74.68
52591;BME280;38483;42.620;25.394;2022-10-16T01:37:09;97768.56;;;8.60;74.98
52591;BME280;38483;42.620;25.394;2022-10-16T01:39:38;97765.16;;;8.58;74.54
52591;BME280;38483;42.620;25.394;2022-10-16T01:42:15;97762.84;;;8.49;75.74
52591;BME280;38483;42.620;25.394;2022-10-16T01:44:45;97774.41;;;8.66;75.07
52591;BME280;38483;42.620;25.394;2022-10-16T01:47:14;97772.31;;;8.80;74.78
52591;BME280;38483;42.620;25.394;2022-10-16T01:49:43;97775.53;;;8.88;74.43
52591;BME280;38483;42.620;25.394;2022-10-16T01:52:16;97776.72;;;8.77;74.44
52591;BME280;38483;42.620;25.394;2022-10-16T01:54:46;97779.25;;;8.78;74.43
52591;BME280;38483;42.620;25.394;2022-10-16T01:57:15;97774.72;;;8.54;73.86
52591;BME280;38483;42.620;25.394;2022-10-16T01:59:47;97782.00;;;8.40;75.01
52591;BME280;38483;42.620;25.394;2022-10-16T02:02:18;97785.47;;;8.02;77.07
52591;BME280;38483;42.620;25.394;2022-10-16T02:04:49;97780.88;;;7.78;77.80
52591;BME280;38483;42.620;25.394;2022-10-16T02:07:18;97776.97;;;7.61;78.42
52591;BME280;38483;42.620;25.394;2022-10-16T02:09:45;97776.84;;;7.68;79.70
52591;BME280;38483;42.620;25.394;2022-10-16T02:12:27;97793.00;;;7.75;79.32
52591;BME280;38483;42.620;25.394;2022-10-16T02:14:55;97793.03;;;7.73;79.80
52591;BME280;38483;42.620;25.394;2022-10-16T02:17:22;97784.44;;;7.74;79.88
52591;BME280;38483;42.620;25.394;2022-10-16T02:19:51;97792.34;;;8.02;78.48
52591;BME280;38483;42.620;25.394;2022-10-16T02:22:43;97794.34;;;7.91;78.64
52591;BME280;38483;42.620;25.394;2022-10-16T02:30:30;97791.63;;;7.60;80.05
52591;BME280;38483;42.620;25.394;2022-10-16T02:33:01;97798.53;;;7.58;80.18
52591;BME280;38483;42.620;25.394;2022-10-16T02:35:30;97785.75;;;7.54;80.32
52591;BME280;38483;42.620;25.394;2022-10-16T02:37:58;97792.69;;;7.50;80.85
52591;BME280;38483;42.620;25.394;2022-10-16T02:40:26;97796.06;;;7.54;80.69
52591;BME280;38483;42.620;25.394;2022-10-16T02:42:55;97798.41;;;7.64;80.65
52591;BME280;38483;42.620;25.394;2022-10-16T02:45:23;97791.63;;;7.59;79.90
52591;BME280;38483;42.620;25.394;2022-10-16T02:47:50;97791.81;;;7.51;81.17
52591;BME280;38483;42.620;25.394;2022-10-16T02:50:17;97784.94;;;7.50;80.43
52591;BME280;38483;42.620;25.394;2022-10-16T02:52:44;97792.00;;;7.80;79.81
52591;BME280;38483;42.620;25.394;2022-10-16T02:55:11;97798.78;;;7.84;79.18
52591;BME280;38483;42.620;25.394;2022-10-16T02:57:38;97803.31;;;7.75;79.18
52591;BME280;38483;42.620;25.394;2022-10-16T03:00:09;97811.44;;;7.57;79.89
52591;BME280;38483;42.620;25.394;2022-10-16T03:02:36;97811.66;;;7.46;80.75
52591;BME280;38483;42.620;25.394;2022-10-16T03:05:04;97816.63;;;7.55;80.27
52591;BME280;38483;42.620;25.394;2022-10-16T03:07:32;97822.78;;;7.48;79.72
52591;BME280;38483;42.620;25.394;2022-10-16T03:09:59;97830.16;;;7.23;80.18
52591;BME280;38483;42.620;25.394;2022-10-16T03:12:29;97829.59;;;7.11;81.33
52591;BME280;38483;42.620;25.394;2022-10-16T03:14:56;97831.97;;;7.20;81.63
52591;BME280;38483;42.620;25.394;2022-10-16T03:17:24;97833.72;;;7.18;82.26
52591;BME280;38483;42.620;25.394;2022-10-16T03:19:51;97833.75;;;7.16;81.87
52591;BME280;38483;42.620;25.394;2022-10-16T03:22:18;97838.75;;;7.24;81.84
52591;BME280;38483;42.620;25.394;2022-10-16T03:24:45;97828.56;;;7.18;81.58
52591;BME280;38483;42.620;25.394;2022-10-16T03:27:12;97833.69;;;7.21;81.89
52591;BME280;38483;42.620;25.394;2022-10-16T03:29:40;97827.03;;;7.09;81.45
52591;BME280;38483;42.620;25.394;2022-10-16T03:32:07;97818.34;;;7.15;81.75
52591;BME280;38483;42.620;25.394;2022-10-16T03:34:34;97835.28;;;7.26;82.05
52591;BME280;38483;42.620;25.394;2022-10-16T03:37:01;97826.81;;;7.20;81.34
52591;BME280;38483;42.620;25.394;2022-10-16T03:39:30;97828.53;;;7.19;82.47
52591;BME280;38483;42.620;25.394;2022-10-16T03:41:56;97841.25;;;7.28;80.89
52591;BME280;38483;42.620;25.394;2022-10-16T03:44:23;97845.78;;;7.16;81.55
52591;BME280;38483;42.620;25.394;2022-10-16T03:46:50;97830.81;;;6.92;82.29
52591;BME280;38483;42.620;25.394;2022-10-16T03:49:17;97843.53;;;6.99;82.70
52591;BME280;38483;42.620;25.394;2022-10-16T03:51:45;97836.66;;;7.00;81.95
52591;BME280;38483;42.620;25.394;2022-10-16T03:54:12;97844.09;;;7.15;81.04
52591;BME280;38483;42.620;25.394;2022-10-16T03:56:39;97843.03;;;7.25;80.14
52591;BME280;38483;42.620;25.394;2022-10-16T03:59:08;97847.28;;;7.26;80.14
52591;BME280;38483;42.620;25.394;2022-10-16T04:01:35;97860.19;;;7.26;80.55
52591;BME280;38483;42.620;25.394;2022-10-16T04:04:01;97850.78;;;7.23;80.71
52591;BME280;38483;42.620;25.394;2022-10-16T04:06:28;97851.28;;;7.40;79.94
52591;BME280;38483;42.620;25.394;2022-10-16T04:08:55;97848.72;;;7.40;79.88
52591;BME280;38483;42.620;25.394;2022-10-16T04:11:22;97862.53;;;7.36;79.61
52591;BME280;38483;42.620;25.394;2022-10-16T04:13:49;97860.47;;;7.12;81.15
52591;BME280;38483;42.620;25.394;2022-10-16T04:16:16;97849.19;;;7.18;81.74
52591;BME280;38483;42.620;25.394;2022-10-16T04:18:43;97853.16;;;7.34;80.99
52591;BME280;38483;42.620;25.394;2022-10-16T04:21:10;97851.38;;;7.37;80.92
52591;BME280;38483;42.620;25.394;2022-10-16T04:23:37;97856.22;;;7.51;79.97
52591;BME280;38483;42.620;25.394;2022-10-16T04:26:04;97858.22;;;7.78;79.99
52591;BME280;38483;42.620;25.394;2022-10-16T04:28:31;97859.00;;;7.82;78.49
52591;BME280;38483;42.620;25.394;2022-10-16T04:30:58;97817.88;;;7.36;78.99
52591;BME280;38483;42.620;25.394;2022-10-16T04:33:25;97857.69;;;7.64;78.83
52591;BME280;38483;42.620;25.394;2022-10-16T04:36:02;97860.00;;;7.76;77.87
52591;BME280;38483;42.620;25.394;2022-10-16T04:38:29;97856.09;;;7.57;77.31
52591;BME280;38483;42.620;25.394;2022-10-16T04:40:56;97855.72;;;7.34;79.79
52591;BME280;38483;42.620;25.394;2022-10-16T04:43:23;97858.63;;;7.17;80.09
52591;BME280;38483;42.620;25.394;2022-10-16T04:45:50;97860.25;;;7.23;80.47
52591;BME280;38483;42.620;25.394;2022-10-16T04:48:18;97853.13;;;7.35;79.82
52591;BME280;38483;42.620;25.394;2022-10-16T04:50:45;97863.19;;;7.48;78.54
52591;BME280;38483;42.620;25.394;2022-10-16T04:53:14;97849.31;;;7.53;78.61
52591;BME280;38483;42.620;25.394;2022-10-16T04:55:42;97874.84;;;7.22;77.94
52591;BME280;38483;42.620;25.394;2022-10-16T04:58:09;97883.72;;;7.08;79.91
52591;BME280;38483;42.620;25.394;2022-10-16T05:00:36;97880.47;;;6.97;79.07
52591;BME280;38483;42.620;25.394;2022-10-16T05:03:03;97872.31;;;7.19;78.96
52591;BME280;38483;42.620;25.394;2022-10-16T05:05:35;97885.00;;;7.31;78.80
52591;BME280;38483;42.620;25.394;2022-10-16T05:08:02;97890.50;;;7.56;77.39
52591;BME280;38483;42.620;25.394;2022-10-16T05:10:29;97883.72;;;7.52;77.06
52591;BME280;38483;42.620;25.394;2022-10-16T05:12:56;97892.88;;;7.65;76.63
52591;BME280;38483;42.620;25.394;2022-10-16T05:15:23;97889.41;;;7.68;75.72
52591;BME280;38483;42.620;25.394;2022-10-16T05:17:54;97885.31;;;7.58;75.77
52591;BME280;38483;42.620;25.394;2022-10-16T05:20:23;97896.41;;;7.61;76.38
52591;BME280;38483;42.620;25.394;2022-10-16T05:22:50;97895.00;;;7.45;76.55
52591;BME280;38483;42.620;25.394;2022-10-16T05:25:17;97887.44;;;7.37;77.11
52591;BME280;38483;42.620;25.394;2022-10-16T05:27:47;97893.28;;;7.46;76.75
52591;BME280;38483;42.620;25.394;2022-10-16T05:30:16;97895.31;;;7.71;76.50
52591;BME280;38483;42.620;25.394;2022-10-16T05:32:50;97896.09;;;7.76;76.75
52591;BME280;38483;42.620;25.394;2022-10-16T05:35:18;97895.25;;;7.76;75.88
52591;BME280;38483;42.620;25.394;2022-10-16T05:37:46;97882.38;;;7.74;75.87
52591;BME280;38483;42.620;25.394;2022-10-16T05:40:14;97898.72;;;7.73;76.45
52591;BME280;38483;42.620;25.394;2022-10-16T05:42:41;97897.59;;;7.86;76.02
52591;BME280;38483;42.620;25.394;2022-10-16T05:45:10;97906.50;;;8.10;75.34
52591;BME280;38483;42.620;25.394;2022-10-16T05:47:38;97912.19;;;8.27;75.42
52591;BME280;38483;42.620;25.394;2022-10-16T05:50:06;97912.00;;;8.35;75.05
52591;BME280;38483;42.620;25.394;2022-10-16T05:52:33;97913.47;;;8.46;74.17
52591;BME280;38483;42.620;25.394;2022-10-16T05:55:00;97921.44;;;8.72;73.50
52591;BME280;38483;42.620;25.394;2022-10-16T05:57:28;97921.22;;;8.80;73.18
52591;BME280;38483;42.620;25.394;2022-10-16T05:59:56;97931.78;;;9.06;72.37
52591;BME280;38483;42.620;25.394;2022-10-16T06:02:23;97928.06;;;9.16;71.71
52591;BME280;38483;42.620;25.394;2022-10-16T06:04:53;97921.69;;;9.29;72.21
52591;BME280;38483;42.620;25.394;2022-10-16T06:07:21;97921.16;;;9.49;71.52
52591;BME280;38483;42.620;25.394;2022-10-16T06:09:49;97924.66;;;9.77;70.68
52591;BME280;38483;42.620;25.394;2022-10-16T06:12:16;97917.38;;;9.91;69.70
52591;BME280;38483;42.620;25.394;2022-10-16T06:14:45;97930.06;;;9.99;69.86
52591;BME280;38483;42.620;25.394;2022-10-16T06:17:15;97924.91;;;9.99;69.77
52591;BME280;38483;42.620;25.394;2022-10-16T06:19:42;97932.09;;;9.88;70.98
52591;BME280;38483;42.620;25.394;2022-10-16T06:22:09;97928.66;;;9.89;70.88
52591;BME280;38483;42.620;25.394;2022-10-16T06:24:36;97935.00;;;10.06;70.91
52591;BME280;38483;42.620;25.394;2022-10-16T06:27:04;97947.38;;;9.97;71.12
52591;BME280;38483;42.620;25.394;2022-10-16T06:29:32;97944.41;;;9.79;71.83
52591;BME280;38483;42.620;25.394;2022-10-16T06:32:00;97944.41;;;9.79;71.88
52591;BME280;38483;42.620;25.394;2022-10-16T06:34:28;97932.03;;;9.91;72.59
52591;BME280;38483;42.620;25.394;2022-10-16T06:36:57;97947.19;;;10.03;71.84
52591;BME280;38483;42.620;25.394;2022-10-16T06:39:24;97943.81;;;10.01;72.17
52591;BME280;38483;42.620;25.394;2022-10-16T06:41:54;97952.38;;;10.03;73.07
52591;BME280;38483;42.620;25.394;2022-10-16T06:44:25;97936.19;;;10.25;72.17
52591;BME280;38483;42.620;25.394;2022-10-16T06:46:52;97954.97;;;10.59;71.15
52591;BME280;38483;42.620;25.394;2022-10-16T06:49:19;97950.56;;;10.63;71.20
52591;BME280;38483;42.620;25.394;2022-10-16T06:51:49;97959.97;;;10.65;71.33
52591;BME280;38483;42.620;25.394;2022-10-16T06:54:16;97954.78;;;10.65;71.81
52591;BME280;38483;42.620;25.394;2022-10-16T06:56:44;97959.69;;;10.75;72.04
52591;BME280;38483;42.620;25.394;2022-10-16T06:59:11;97969.16;;;11.02;71.10
52591;BME280;38483;42.620;25.394;2022-10-16T07:01:40;97977.56;;;11.34;70.77
52591;BME280;38483;42.620;25.394;2022-10-16T07:04:07;97962.66;;;11.66;69.85
52591;BME280;38483;42.620;25.394;2022-10-16T07:06:34;97971.44;;;11.86;68.70
52591;BME280;38483;42.620;25.394;2022-10-16T07:09:07;97964.38;;;11.90;68.82
52591;BME280;38483;42.620;25.394;2022-10-16T07:11:39;97962.53;;;11.93;68.25
52591;BME280;38483;42.620;25.394;2022-10-16T07:14:25;97962.44;;;12.19;67.97
52591;BME280;38483;42.620;25.394;2022-10-16T07:16:52;97974.53;;;12.42;67.20
52591;BME280;38483;42.620;25.394;2022-10-16T07:19:21;97958.00;;;12.66;65.86
52591;BME280;38483;42.620;25.394;2022-10-16T07:21:47;97973.34;;;12.94;65.15
52591;BME280;38483;42.620;25.394;2022-10-16T07:24:15;97971.22;;;13.03;64.43
52591;BME280;38483;42.620;25.394;2022-10-16T07:26:44;97967.50;;;13.11;64.14
52591;BME280;38483;42.620;25.394;2022-10-16T07:29:18;97961.63;;;13.05;64.65
52591;BME280;38483;42.620;25.394;2022-10-16T07:31:45;97969.28;;;13.30;63.70
52591;BME280;38483;42.620;25.394;2022-10-16T07:34:32;97974.16;;;13.38;62.68
52591;BME280;38483;42.620;25.394;2022-10-16T07:37:54;97970.09;;;13.71;63.36
52591;BME280;38483;42.620;25.394;2022-10-16T07:41:20;97975.09;;;13.96;62.08
52591;BME280;38483;42.620;25.394;2022-10-16T07:44:42;97963.84;;;14.14;60.95
52591;BME280;38483;42.620;25.394;2022-10-16T07:48:04;97965.59;;;14.33;60.56
52591;BME280;38483;42.620;25.394;2022-10-16T07:51:25;97967.25;;;14.34;60.91
52591;BME280;38483;42.620;25.394;2022-10-16T07:54:26;97962.50;;;14.44;59.50
52591;BME280;38483;42.620;25.394;2022-10-16T07:56:53;97959.97;;;14.42;58.48
52591;BME280;38483;42.620;25.394;2022-10-16T07:59:20;97963.47;;;14.41;58.59
52591;BME280;38483;42.620;25.394;2022-10-16T08:01:49;97963.25;;;14.64;58.00
52591;BME280;38483;42.620;25.394;2022-10-16T08:04:37;97974.13;;;14.91;57.50
52591;BME280;38483;42.620;25.394;2022-10-16T08:07:58;97969.00;;;15.07;56.45
52591;BME280;38483;42.620;25.394;2022-10-16T08:11:18;97963.28;;;15.34;56.95
52591;BME280;38483;42.620;25.394;2022-10-16T08:14:39;97957.06;;;15.54;54.49
52591;BME280;38483;42.620;25.394;2022-10-16T08:17:28;97953.69;;;15.69;53.15
52591;BME280;38483;42.620;25.394;2022-10-16T08:19:55;97958.91;;;15.69;54.27
52591;BME280;38483;42.620;25.394;2022-10-16T08:22:22;97953.06;;;15.81;52.71
52591;BME280;38483;42.620;25.394;2022-10-16T08:24:50;97951.88;;;15.87;51.38
52591;BME280;38483;42.620;25.394;2022-10-16T08:27:19;97947.19;;;15.93;51.09
52591;BME280;38483;42.620;25.394;2022-10-16T08:29:48;97916.56;;;15.80;48.47
52591;BME280;38483;42.620;25.394;2022-10-16T08:32:15;97954.66;;;15.84;47.61
52591;BME280;38483;42.620;25.394;2022-10-16T08:34:42;97949.69;;;15.79;47.73
52591;BME280;38483;42.620;25.394;2022-10-16T08:37:09;97943.78;;;15.76;48.55
52591;BME280;38483;42.620;25.394;2022-10-16T08:39:39;97947.50;;;15.87;48.22
52591;BME280;38483;42.620;25.394;2022-10-16T08:45:23;97945.72;;;16.05;47.80
52591;BME280;38483;42.620;25.394;2022-10-16T08:50:31;97955.84;;;16.26;47.29
52591;BME280;38483;42.620;25.394;2022-10-16T08:52:59;97948.00;;;16.26;47.37
52591;BME280;38483;42.620;25.394;2022-10-16T08:55:42;97956.09;;;15.89;47.93
52591;BME280;38483;42.620;25.394;2022-10-16T08:58:21;97956.31;;;16.02;48.09
52591;BME280;38483;42.620;25.394;2022-10-16T09:00:58;97953.47;;;16.06;47.66
52591;BME280;38483;42.620;25.394;2022-10-16T09:04:02;97917.03;;;16.03;47.16
52591;BME280;38483;42.620;25.394;2022-10-16T09:15:24;97949.41;;;16.65;46.86
52591;BME280;38483;42.620;25.394;2022-10-16T09:20:38;97951.00;;;16.83;45.60
52591;BME280;38483;42.620;25.394;2022-10-16T09:23:16;97957.25;;;16.96;45.00
52591;BME280;38483;42.620;25.394;2022-10-16T09:25:47;97954.94;;;16.90;44.87
52591;BME280;38483;42.620;25.394;2022-10-16T09:28:18;97946.44;;;16.86;44.56
52591;BME280;38483;42.620;25.394;2022-10-16T09:30:46;97950.16;;;16.98;44.21
52591;BME280;38483;42.620;25.394;2022-10-16T09:33:24;97953.44;;;17.01;44.74
52591;BME280;38483;42.620;25.394;2022-10-16T09:35:55;97954.69;;;17.10;44.21
52591;BME280;38483;42.620;25.394;2022-10-16T09:38:35;97946.47;;;17.16;43.91
52591;BME280;38483;42.620;25.394;2022-10-16T09:41:17;97941.09;;;17.03;43.51
52591;BME280;38483;42.620;25.394;2022-10-16T09:43:52;97952.94;;;16.95;43.48
52591;BME280;38483;42.620;25.394;2022-10-16T09:46:32;97941.69;;;16.93;43.87
52591;BME280;38483;42.620;25.394;2022-10-16T09:49:05;97942.50;;;17.09;43.53
52591;BME280;38483;42.620;25.394;2022-10-16T09:51:45;97941.63;;;17.24;43.24
52591;BME280;38483;42.620;25.394;2022-10-16T09:54:15;97939.22;;;17.35;43.29
52591;BME280;38483;42.620;25.394;2022-10-16T09:56:42;97908.53;;;17.23;43.04
52591;BME280;38483;42.620;25.394;2022-10-16T09:59:14;97926.25;;;17.48;42.82
52591;BME280;38483;42.620;25.394;2022-10-16T10:04:08;97918.34;;;17.49;43.08
52591;BME280;38483;42.620;25.394;2022-10-16T10:06:43;97923.41;;;17.66;42.92
52591;BME280;38483;42.620;25.394;2022-10-16T10:12:23;97920.09;;;17.93;42.18
52591;BME280;38483;42.620;25.394;2022-10-16T10:14:55;97913.34;;;18.03;42.06
52591;BME280;38483;42.620;25.394;2022-10-16T10:17:25;97916.13;;;18.00;41.71
52591;BME280;38483;42.620;25.394;2022-10-16T10:19:54;97914.53;;;17.83;41.99
52591;BME280;38483;42.620;25.394;2022-10-16T10:22:45;97908.09;;;17.88;42.18
52591;BME280;38483;42.620;25.394;2022-10-16T10:30:42;97901.53;;;18.10;41.94
52591;BME280;38483;42.620;25.394;2022-10-16T10:44:07;97894.75;;;18.34;40.44
52591;BME280;38483;42.620;25.394;2022-10-16T10:52:42;97862.56;;;18.18;39.82
52591;BME280;38483;42.620;25.394;2022-10-16T10:55:19;97888.91;;;18.43;39.62
52591;BME280;38483;42.620;25.394;2022-10-16T11:03:41;97889.94;;;18.40;40.29
52591;BME280;38483;42.620;25.394;2022-10-16T11:08:53;97888.91;;;18.57;40.48
52591;BME280;38483;42.620;25.394;2022-10-16T11:11:49;97883.13;;;18.52;39.65
52591;BME280;38483;42.620;25.394;2022-10-16T11:17:13;97883.22;;;18.36;39.85
52591;BME280;38483;42.620;25.394;2022-10-16T11:20:05;97878.06;;;18.49;40.20
52591;BME280;38483;42.620;25.394;2022-10-16T11:22:47;97879.94;;;18.33;40.33
52591;BME280;38483;42.620;25.394;2022-10-16T11:33:36;97880.28;;;18.69;39.49
52591;BME280;38483;42.620;25.394;2022-10-16T11:36:25;97862.03;;;18.80;39.41
52591;BME280;38483;42.620;25.394;2022-10-16T11:41:50;97858.41;;;18.95;39.04
52591;BME280;38483;42.620;25.394;2022-10-16T11:50:40;97861.34;;;19.03;37.98
52591;BME280;38483;42.620;25.394;2022-10-16T11:53:18;97861.06;;;19.08;37.91
52591;BME280;38483;42.620;25.394;2022-10-16T11:55:50;97864.31;;;19.11;37.86
52591;BME280;38483;42.620;25.394;2022-10-16T11:58:28;97866.75;;;19.14;37.80
52591;BME280;38483;42.620;25.394;2022-10-16T12:04:21;97870.50;;;19.10;38.08
52591;BME280;38483;42.620;25.394;2022-10-16T12:09:29;97875.06;;;18.94;38.10
52591;BME280;38483;42.620;25.394;2022-10-16T12:11:57;97876.81;;;19.08;37.84
52591;BME280;38483;42.620;25.394;2022-10-16T12:17:03;97879.59;;;18.92;38.15
52591;BME280;38483;42.620;25.394;2022-10-16T12:19:33;97883.88;;;18.81;38.52
52591;BME280;38483;42.620;25.394;2022-10-16T12:22:03;97884.78;;;18.80;38.14
52591;BME280;38483;42.620;25.394;2022-10-16T12:24:39;97881.44;;;18.78;38.12
52591;BME280;38483;42.620;25.394;2022-10-16T12:29:55;97877.88;;;18.52;38.70
52591;BME280;38483;42.620;25.394;2022-10-16T12:32:35;97890.00;;;18.67;37.95
52591;BME280;38483;42.620;25.394;2022-10-16T12:35:21;97877.47;;;18.58;38.26
52591;BME280;38483;42.620;25.394;2022-10-16T12:37:50;97871.16;;;18.48;37.99
52591;BME280;38483;42.620;25.394;2022-10-16T12:40:28;97860.97;;;18.29;38.22
52591;BME280;38483;42.620;25.394;2022-10-16T12:42:56;97886.41;;;18.41;37.86
52591;BME280;38483;42.620;25.394;2022-10-16T12:45:30;97888.06;;;18.42;38.00
52591;BME280;38483;42.620;25.394;2022-10-16T12:48:00;97887.75;;;18.48;39.05
52591;BME280;38483;42.620;25.394;2022-10-16T12:50:32;97900.19;;;18.45;38.06
52591;BME280;38483;42.620;25.394;2022-10-16T12:53:01;97896.03;;;18.41;35.37
52591;BME280;38483;42.620;25.394;2022-10-16T12:55:42;97895.50;;;18.50;35.03
52591;BME280;38483;42.620;25.394;2022-10-16T13:00:57;97890.38;;;18.48;34.07
52591;BME280;38483;42.620;25.394;2022-10-16T13:21:18;97928.19;;;18.44;35.40
52591;BME280;38483;42.620;25.394;2022-10-16T13:26:55;97943.19;;;18.14;35.90
52591;BME280;38483;42.620;25.394;2022-10-16T13:29:23;97923.81;;;18.17;36.14
52591;BME280;38483;42.620;25.394;2022-10-16T13:31:50;97925.31;;;18.21;36.04
52591;BME280;38483;42.620;25.394;2022-10-16T13:34:20;97918.19;;;18.23;36.30
52591;BME280;38483;42.620;25.394;2022-10-16T13:36:50;97924.91;;;18.27;36.41
52591;BME280;38483;42.620;25.394;2022-10-16T13:39:24;97933.09;;;18.08;36.05
52591;BME280;38483;42.620;25.394;2022-10-16T13:42:27;97925.69;;;18.15;36.89
52591;BME280;38483;42.620;25.394;2022-10-16T13:44:56;97925.78;;;18.27;36.30
52591;BME280;38483;42.620;25.394;2022-10-16T13:47:28;97924.66;;;17.89;36.22
52591;BME280;38483;42.620;25.394;2022-10-16T13:50:00;97935.44;;;17.99;36.41
52591;BME280;38483;42.620;25.394;2022-10-16T13:52:29;97933.63;;;17.85;35.99
52591;BME280;38483;42.620;25.394;2022-10-16T13:54:56;97930.72;;;18.04;36.17
52591;BME280;38483;42.620;25.394;2022-10-16T13:57:29;97941.59;;;17.83;36.22
52591;BME280;38483;42.620;25.394;2022-10-16T13:59:56;97937.31;;;17.82;35.81
52591;BME280;38483;42.620;25.394;2022-10-16T14:02:30;97915.97;;;17.88;35.89
52591;BME280;38483;42.620;25.394;2022-10-16T14:05:02;97931.09;;;17.98;35.83
52591;BME280;38483;42.620;25.394;2022-10-16T14:07:34;97938.06;;;17.84;36.27
52591;BME280;38483;42.620;25.394;2022-10-16T14:10:22;97944.00;;;17.72;36.17
52591;BME280;38483;42.620;25.394;2022-10-16T14:13:03;97941.00;;;17.64;37.00
52591;BME280;38483;42.620;25.394;2022-10-16T14:15:33;97959.72;;;17.72;37.31
52591;BME280;38483;42.620;25.394;2022-10-16T14:18:01;97945.94;;;17.55;37.36
52591;BME280;38483;42.620;25.394;2022-10-16T14:20:31;97957.66;;;17.49;37.25
52591;BME280;38483;42.620;25.394;2022-10-16T14:23:16;97966.25;;;17.51;37.58
52591;BME280;38483;42.620;25.394;2022-10-16T14:25:46;97962.78;;;17.35;38.32
52591;BME280;38483;42.620;25.394;2022-10-16T14:30:50;97957.97;;;17.43;38.10
52591;BME280;38483;42.620;25.394;2022-10-16T14:36:05;97960.00;;;17.38;38.96
52591;BME280;38483;42.620;25.394;2022-10-16T14:38:33;97971.19;;;17.26;39.07
52591;BME280;38483;42.620;25.394;2022-10-16T14:41:00;97943.31;;;16.95;39.48
52591;BME280;38483;42.620;25.394;2022-10-16T14:43:35;97969.34;;;17.13;39.89
52591;BME280;38483;42.620;25.394;2022-10-16T14:46:12;97967.53;;;16.99;40.54
52591;BME280;38483;42.620;25.394;2022-10-16T14:48:48;97975.22;;;17.02;40.53
52591;BME280;38483;42.620;25.394;2022-10-16T14:51:18;97978.59;;;17.04;41.37
52591;BME280;38483;42.620;25.394;2022-10-16T14:53:46;97982.13;;;17.03;41.16
52591;BME280;38483;42.620;25.394;2022-10-16T14:56:18;97985.59;;;16.72;41.96
52591;BME280;38483;42.620;25.394;2022-10-16T14:58:46;97983.75;;;16.74;42.06
52591;BME280;38483;42.620;25.394;2022-10-16T15:01:14;97983.75;;;16.59;42.12
52591;BME280;38483;42.620;25.394;2022-10-16T15:03:41;97969.88;;;16.41;42.17
52591;BME280;38483;42.620;25.394;2022-10-16T15:06:12;97986.66;;;16.37;42.38
52591;BME280;38483;42.620;25.394;2022-10-16T15:08:53;97986.88;;;16.33;42.68
52591;BME280;38483;42.620;25.394;2022-10-16T15:11:28;97995.28;;;16.22;42.83
52591;BME280;38483;42.620;25.394;2022-10-16T15:13:55;97970.66;;;16.10;42.93
52591;BME280;38483;42.620;25.394;2022-10-16T15:16:24;97986.50;;;16.07;43.27
52591;BME280;38483;42.620;25.394;2022-10-16T15:18:51;97994.09;;;16.12;43.36
52591;BME280;38483;42.620;25.394;2022-10-16T15:21:25;97996.50;;;15.99;44.02
52591;BME280;38483;42.620;25.394;2022-10-16T15:23:54;98000.81;;;16.00;44.26
52591;BME280;38483;42.620;25.394;2022-10-16T15:26:25;98000.28;;;15.94;43.54
52591;BME280;38483;42.620;25.394;2022-10-16T15:28:52;98013.56;;;15.89;43.88
52591;BME280;38483;42.620;25.394;2022-10-16T15:31:20;98014.88;;;15.81;44.28
52591;BME280;38483;42.620;25.394;2022-10-16T15:33:50;98018.97;;;15.69;45.08
52591;BME280;38483;42.620;25.394;2022-10-16T15:36:30;98031.66;;;15.60;45.06